Terminal Aerodrome Forecast
Issued by NWS

Home | Current Version | Previous Version | Text Only | Print | Product List | Glossary On
Versions: 1 2 3 4 5 6 7 8 9 10 11 12 13 14 15 16 17 18 19 20 21 22 23
000
FTUS43 KPAH 180300 AAB
TAFCGI
TAF AMD
KCGI 180358Z 1804/1824 VRB02KT 2SM BR BKN040
      TEMPO 1804/1808 1/2SM FG SCT030
     FM180800 VRB02KT 1SM BR BKN030
      TEMPO 1808/1812 1/4SM FG VV001
     FM181400 07005KT P6SM BKN025
     FM181800 06006KT P6SM BKN035=

USA.gov is the U.S. government's official web portal to all federal, state and local government web resources and services.